Time;durP1;ratioP1;P1;durP2;ratioP2;P2;SDS_P1;SDS_P2;PMS_P1;PMS_P2;Temp;Humidity;BMP_temperature;BMP_pressure;BME280_temperature;BME280_humidity;BME280_pressure;Samples;Min_cycle;Max_cycle;Signal;HPM_P1;HPM_P2
2023/01/14 00:00:51;;;;;;;14.32;4.30;;;;;;;;;;5014928;28;20074;-77
2023/01/14 00:03:17;;;;;;;14.05;3.55;;;;;;;;;;5015469;28;20097;-77
2023/01/14 00:05:43;;;;;;;17.73;3.90;;;;;;;;;;5029051;28;20045;-77
2023/01/14 00:08:09;;;;;;;13.48;3.60;;;;;;;;;;5016896;28;20045;-77
2023/01/14 00:10:37;;;;;;;16.88;3.63;;;;;;;;;;5018207;28;20056;-77
2023/01/14 00:13:03;;;;;;;9.82;3.28;;;;;;;;;;5031491;28;20116;-77
2023/01/14 00:15:29;;;;;;;15.90;3.55;;;;;;;;;;5016072;28;20496;-77
2023/01/14 00:17:55;;;;;;;16.38;3.90;;;;;;;;;;4999549;28;20503;-76
2023/01/14 00:20:22;;;;;;;16.40;3.80;;;;;;;;;;5015790;28;20466;-77
2023/01/14 00:22:48;;;;;;;14.77;3.58;;;;;;;;;;5001949;28;20053;-76
2023/01/14 00:25:14;;;;;;;20.77;4.93;;;;;;;;;;5015626;28;20054;-77
2023/01/14 00:27:41;;;;;;;18.45;5.00;;;;;;;;;;5030564;28;20049;-77
2023/01/14 00:30:07;;;;;;;16.65;4.03;;;;;;;;;;5030885;28;20045;-77
2023/01/14 00:32:33;;;;;;;18.50;4.25;;;;;;;;;;5022234;28;20048;-77
2023/01/14 00:34:59;;;;;;;14.02;4.10;;;;;;;;;;5031435;28;20381;-77
2023/01/14 00:37:25;;;;;;;17.33;3.80;;;;;;;;;;5034340;28;20548;-77
2023/01/14 00:39:51;;;;;;;13.77;3.60;;;;;;;;;;5035490;28;20098;-77
2023/01/14 00:42:17;;;;;;;19.92;3.88;;;;;;;;;;5033901;28;20468;-77
2023/01/14 00:44:43;;;;;;;12.63;4.30;;;;;;;;;;5032539;28;20049;-77
2023/01/14 00:47:09;;;;;;;18.50;4.50;;;;;;;;;;5015975;28;20053;-77
2023/01/14 00:49:35;;;;;;;20.17;3.85;;;;;;;;;;5029938;28;20049;-77
2023/01/14 00:52:02;;;;;;;20.15;4.28;;;;;;;;;;5033492;28;20067;-77
2023/01/14 00:54:28;;;;;;;16.55;3.33;;;;;;;;;;5012482;28;20453;-77
2023/01/14 00:56:56;;;;;;;17.02;4.00;;;;;;;;;;5014612;28;20508;-77
2023/01/14 00:59:22;;;;;;;15.90;4.43;;;;;;;;;;5016496;28;20073;-76
2023/01/14 01:01:48;;;;;;;21.48;4.30;;;;;;;;;;5015746;28;20041;-76
2023/01/14 01:04:14;;;;;;;17.60;3.95;;;;;;;;;;5014731;28;20049;-76
2023/01/14 01:06:41;;;;;;;14.60;3.92;;;;;;;;;;5013645;28;20479;-77
2023/01/14 01:09:07;;;;;;;16.63;4.13;;;;;;;;;;5016054;28;20091;-76
2023/01/14 01:11:33;;;;;;;17.77;3.97;;;;;;;;;;5015108;28;20038;-77
2023/01/14 01:13:59;;;;;;;21.08;4.00;;;;;;;;;;5031372;28;20052;-77
2023/01/14 01:16:25;;;;;;;16.20;3.60;;;;;;;;;;5034621;28;20088;-77
2023/01/14 01:18:52;;;;;;;14.52;3.67;;;;;;;;;;5034845;28;20060;-77
2023/01/14 01:21:19;;;;;;;16.92;4.07;;;;;;;;;;5034749;28;20064;-77
2023/01/14 01:23:45;;;;;;;13.88;3.65;;;;;;;;;;5033223;28;20404;-77
2023/01/14 01:26:19;;;;;;;14.95;3.78;;;;;;;;;;5022379;28;20049;-76
2023/01/14 01:28:48;;;;;;;14.90;3.70;;;;;;;;;;5033445;28;20052;-76
2023/01/14 01:31:14;;;;;;;20.75;4.38;;;;;;;;;;5014885;28;20046;-76
2023/01/14 01:33:40;;;;;;;19.42;4.20;;;;;;;;;;5014995;28;20507;-76
2023/01/14 01:36:11;;;;;;;23.73;4.60;;;;;;;;;;5014711;28;20346;-76
2023/01/14 01:38:37;;;;;;;25.23;4.57;;;;;;;;;;5019171;28;20037;-76
2023/01/14 01:41:03;;;;;;;15.23;4.28;;;;;;;;;;5019312;28;20401;-76
2023/01/14 01:43:30;;;;;;;17.08;4.03;;;;;;;;;;5015255;28;20042;-77
2023/01/14 01:45:57;;;;;;;19.67;4.28;;;;;;;;;;5014665;28;20128;-76
2023/01/14 01:48:32;;;;;;;19.08;4.97;;;;;;;;;;5014497;28;20060;-77
2023/01/14 01:51:05;;;;;;;17.38;4.63;;;;;;;;;;5029637;28;20042;-76
2023/01/14 01:53:37;;;;;;;17.33;4.65;;;;;;;;;;5032561;28;20059;-77
2023/01/14 01:56:04;;;;;;;19.60;4.50;;;;;;;;;;5025631;28;20041;-76
2023/01/14 01:58:31;;;;;;;21.30;4.85;;;;;;;;;;5025267;28;20125;-77
2023/01/14 02:00:57;;;;;;;18.10;4.22;;;;;;;;;;5014387;28;20081;-77
2023/01/14 02:03:33;;;;;;;21.38;4.68;;;;;;;;;;5014918;28;20048;-76
2023/01/14 02:05:59;;;;;;;15.88;4.47;;;;;;;;;;5014438;28;20492;-76
2023/01/14 02:08:26;;;;;;;25.98;4.35;;;;;;;;;;5012786;28;20045;-77
2023/01/14 02:10:52;;;;;;;18.42;3.78;;;;;;;;;;5014252;28;20064;-77
2023/01/14 02:13:38;;;;;;;19.05;3.80;;;;;;;;;;5017135;28;20045;-77
2023/01/14 02:16:17;;;;;;;21.98;4.10;;;;;;;;;;5034012;28;20053;-77
2023/01/14 02:18:51;;;;;;;18.65;4.13;;;;;;;;;;5032752;28;20041;-77
2023/01/14 02:21:26;;;;;;;21.15;3.85;;;;;;;;;;5033798;28;20480;-77
2023/01/14 02:24:09;;;;;;;12.13;3.63;;;;;;;;;;5027584;28;20065;-76
2023/01/14 02:26:35;;;;;;;22.98;4.32;;;;;;;;;;5028990;28;20126;-76
2023/01/14 02:29:04;;;;;;;17.20;4.50;;;;;;;;;;5014551;28;20133;-76
2023/01/14 02:31:35;;;;;;;20.08;4.68;;;;;;;;;;5014007;28;20045;-76
2023/01/14 02:34:07;;;;;;;19.20;3.58;;;;;;;;;;5017252;28;20038;-76
2023/01/14 02:36:39;;;;;;;16.48;3.80;;;;;;;;;;5018881;28;20048;-76
2023/01/14 02:39:15;;;;;;;15.88;3.75;;;;;;;;;;5036763;28;20053;-76
2023/01/14 02:44:34;;;;;;;11.73;3.83;;;;;;;;;;5015024;28;20045;-77
2023/01/14 02:47:04;;;;;;;16.88;3.72;;;;;;;;;;5014176;28;20096;-76
2023/01/14 02:49:33;;;;;;;14.75;3.33;;;;;;;;;;5012637;28;20092;-76
2023/01/14 02:51:59;;;;;;;20.50;4.00;;;;;;;;;;5015107;28;20048;-77
2023/01/14 02:54:26;;;;;;;18.95;4.40;;;;;;;;;;5018251;28;20064;-77
2023/01/14 02:56:55;;;;;;;19.02;3.60;;;;;;;;;;5044155;28;20041;-76
2023/01/14 02:59:27;;;;;;;14.40;3.88;;;;;;;;;;5024848;28;20125;-76
2023/01/14 03:02:12;;;;;;;18.05;3.90;;;;;;;;;;5012738;28;20046;-76
2023/01/14 03:04:38;;;;;;;18.52;4.18;;;;;;;;;;5012720;28;20050;-76
2023/01/14 03:07:10;;;;;;;18.98;3.92;;;;;;;;;;5017529;28;20113;-76
2023/01/14 03:09:36;;;;;;;16.48;4.10;;;;;;;;;;5016664;28;20042;-76
2023/01/14 03:12:15;;;;;;;17.08;4.18;;;;;;;;;;5017603;28;20046;-76
2023/01/14 03:14:56;;;;;;;20.42;4.05;;;;;;;;;;5017601;28;20073;-76
2023/01/14 03:17:26;;;;;;;21.10;3.95;;;;;;;;;;5029451;28;20053;-76
2023/01/14 03:19:57;;;;;;;22.88;3.78;;;;;;;;;;5033721;28;20052;-76
2023/01/14 03:22:24;;;;;;;19.23;4.03;;;;;;;;;;5031771;28;20568;-76
2023/01/14 03:24:51;;;;;;;17.58;3.97;;;;;;;;;;5022877;28;20042;-76
2023/01/14 03:27:23;;;;;;;16.75;3.45;;;;;;;;;;5040898;28;20134;-76
2023/01/14 03:29:51;;;;;;;23.27;4.57;;;;;;;;;;5017275;28;20057;-76
2023/01/14 03:32:21;;;;;;;21.77;3.95;;;;;;;;;;5016961;28;20046;-76
2023/01/14 03:35:07;;;;;;;20.27;4.55;;;;;;;;;;5016745;28;20473;-76
2023/01/14 03:37:33;;;;;;;20.00;3.63;;;;;;;;;;5018216;28;20361;-76
2023/01/14 03:40:02;;;;;;;18.98;3.78;;;;;;;;;;5036828;28;20060;-76
2023/01/14 03:42:30;;;;;;;16.63;4.13;;;;;;;;;;5017070;28;20089;-76
2023/01/14 03:45:22;;;;;;;16.13;4.35;;;;;;;;;;5032022;28;20045;-76
2023/01/14 03:47:52;;;;;;;18.55;3.80;;;;;;;;;;5050171;28;20057;-76
2023/01/14 03:50:19;;;;;;;21.25;4.00;;;;;;;;;;5036746;28;20128;-76
2023/01/14 03:52:48;;;;;;;17.58;3.80;;;;;;;;;;5031016;28;20060;-76
2023/01/14 03:55:24;;;;;;;20.77;4.13;;;;;;;;;;5022909;28;20555;-76
2023/01/14 03:57:55;;;;;;;19.88;3.67;;;;;;;;;;5026077;28;20038;-76
2023/01/14 04:00:33;;;;;;;18.00;4.00;;;;;;;;;;5034851;28;20549;-76
2023/01/14 04:03:01;;;;;;;18.80;3.47;;;;;;;;;;5035280;28;20084;-76
2023/01/14 04:05:28;;;;;;;14.93;3.67;;;;;;;;;;5035222;28;20111;-76
2023/01/14 04:07:56;;;;;;;16.85;3.70;;;;;;;;;;5036174;28;20116;-76
2023/01/14 04:10:22;;;;;;;23.95;4.13;;;;;;;;;;5030126;28;20064;-76
2023/01/14 04:15:33;;;;;;;25.13;4.38;;;;;;;;;;5015063;28;20069;-76
2023/01/14 04:17:59;;;;;;;13.48;3.40;;;;;;;;;;5014915;28;20054;-76
2023/01/14 04:20:25;;;;;;;16.33;3.50;;;;;;;;;;5014873;28;20104;-76
2023/01/14 04:22:51;;;;;;;15.48;3.90;;;;;;;;;;5016501;28;20045;-76
2023/01/14 04:25:17;;;;;;;15.32;3.28;;;;;;;;;;5033590;28;20423;-76
2023/01/14 04:27:43;;;;;;;21.75;4.20;;;;;;;;;;5037433;28;20069;-76
2023/01/14 04:30:09;;;;;;;21.33;4.13;;;;;;;;;;5016005;28;20046;-76
2023/01/14 04:32:35;;;;;;;17.73;3.45;;;;;;;;;;5014655;28;20095;-76
2023/01/14 04:35:02;;;;;;;13.68;3.45;;;;;;;;;;5016220;28;20103;-76
2023/01/14 04:37:28;;;;;;;14.43;3.63;;;;;;;;;;5029028;28;20516;-76
2023/01/14 04:39:54;;;;;;;16.52;3.50;;;;;;;;;;5032771;28;20073;-76
2023/01/14 04:42:26;;;;;;;17.65;4.07;;;;;;;;;;5051004;28;20076;-76
2023/01/14 04:44:52;;;;;;;21.58;4.13;;;;;;;;;;5047426;28;20072;-75
2023/01/14 04:47:18;;;;;;;17.92;4.45;;;;;;;;;;5020977;28;20045;-76
2023/01/14 04:49:44;;;;;;;19.40;4.28;;;;;;;;;;5034058;28;20133;-76
2023/01/14 04:52:10;;;;;;;20.88;4.20;;;;;;;;;;5034295;28;20121;-76
2023/01/14 04:54:36;;;;;;;16.38;4.22;;;;;;;;;;5035741;28;20037;-76
2023/01/14 04:57:02;;;;;;;22.80;3.92;;;;;;;;;;5025887;28;20045;-76
2023/01/14 04:59:28;;;;;;;16.25;3.67;;;;;;;;;;5016740;28;20042;-76
2023/01/14 05:01:54;;;;;;;16.58;3.90;;;;;;;;;;5014222;28;20048;-75
2023/01/14 05:04:20;;;;;;;17.48;4.10;;;;;;;;;;4998494;28;20178;-76
2023/01/14 05:06:46;;;;;;;21.50;4.68;;;;;;;;;;5032807;28;20050;-76
2023/01/14 05:09:12;;;;;;;17.48;3.92;;;;;;;;;;5014136;28;20129;-76
2023/01/14 05:11:38;;;;;;;18.88;3.75;;;;;;;;;;5015522;28;20046;-76
2023/01/14 05:14:04;;;;;;;13.27;3.95;;;;;;;;;;5014104;28;20054;-76
2023/01/14 05:16:30;;;;;;;15.63;4.28;;;;;;;;;;5013860;28;20054;-76
2023/01/14 05:18:56;;;;;;;19.30;3.90;;;;;;;;;;5020945;28;20046;-76
2023/01/14 05:21:22;;;;;;;18.10;3.97;;;;;;;;;;5014370;28;20061;-76
2023/01/14 05:23:48;;;;;;;21.95;3.55;;;;;;;;;;5014208;28;20133;-76
2023/01/14 05:26:14;;;;;;;15.35;3.53;;;;;;;;;;5015329;28;20123;-76
2023/01/14 05:28:41;;;;;;;15.95;3.55;;;;;;;;;;5031345;28;20049;-76
2023/01/14 05:31:07;;;;;;;17.38;3.85;;;;;;;;;;5034634;28;20052;-76
2023/01/14 05:33:33;;;;;;;16.33;3.60;;;;;;;;;;5014624;28;20096;-76
2023/01/14 05:35:59;;;;;;;13.98;3.28;;;;;;;;;;5013454;28;20081;-76
2023/01/14 05:38:25;;;;;;;14.55;3.10;;;;;;;;;;5013515;28;20050;-76
2023/01/14 05:40:52;;;;;;;18.65;4.47;;;;;;;;;;5015130;28;20041;-76
2023/01/14 05:46:10;;;;;;;17.85;4.20;;;;;;;;;;5030798;28;20060;-76
2023/01/14 05:48:36;;;;;;;22.70;4.68;;;;;;;;;;5029748;28;20037;-76
2023/01/14 05:51:04;;;;;;;18.65;4.40;;;;;;;;;;5038892;28;20061;-78
2023/01/14 05:53:30;;;;;;;16.42;3.95;;;;;;;;;;5035593;28;20103;-76
2023/01/14 05:55:57;;;;;;;24.20;4.20;;;;;;;;;;5034701;28;20052;-76
2023/01/14 05:58:23;;;;;;;18.25;4.20;;;;;;;;;;5033747;28;20045;-76
2023/01/14 06:06:27;;;;;;;16.38;3.45;;;;;;;;;;5029890;28;20402;-76
2023/01/14 06:09:04;;;;;;;14.85;3.80;;;;;;;;;;5014298;28;20088;-76
2023/01/14 06:11:32;;;;;;;15.13;4.30;;;;;;;;;;5014480;28;20052;-76
2023/01/14 06:13:59;;;;;;;15.48;3.78;;;;;;;;;;5014204;28;20402;-76
2023/01/14 06:16:31;;;;;;;19.50;4.18;;;;;;;;;;5014411;28;20420;-76
2023/01/14 06:18:58;;;;;;;16.33;3.65;;;;;;;;;;5014590;28;20136;-76
2023/01/14 06:21:27;;;;;;;18.13;3.92;;;;;;;;;;5012723;28;20054;-76
2023/01/14 06:23:53;;;;;;;17.45;4.00;;;;;;;;;;5014171;28;20088;-76
2023/01/14 06:26:20;;;;;;;17.45;4.45;;;;;;;;;;5014402;28;20041;-76
2023/01/14 06:28:46;;;;;;;17.15;3.97;;;;;;;;;;4996618;28;20057;-76
2023/01/14 06:31:14;;;;;;;24.27;4.40;;;;;;;;;;5012971;28;20042;-76
2023/01/14 06:33:40;;;;;;;16.48;4.63;;;;;;;;;;5023850;28;20050;-76
2023/01/14 06:36:07;;;;;;;20.02;4.97;;;;;;;;;;5017996;28;20045;-76
2023/01/14 06:38:33;;;;;;;16.70;4.60;;;;;;;;;;5014044;28;20037;-76
2023/01/14 06:41:00;;;;;;;23.27;5.00;;;;;;;;;;5012988;28;20034;-76
2023/01/14 06:43:26;;;;;;;13.77;4.78;;;;;;;;;;5016662;28;20045;-76
2023/01/14 06:45:53;;;;;;;26.20;5.63;;;;;;;;;;5032089;28;20049;-76
2023/01/14 06:48:19;;;;;;;20.08;5.25;;;;;;;;;;5032921;28;20056;-76
2023/01/14 06:50:45;;;;;;;28.52;5.30;;;;;;;;;;5019799;28;20053;-76
2023/01/14 06:53:11;;;;;;;25.48;5.18;;;;;;;;;;5013912;28;20058;-76
2023/01/14 06:55:37;;;;;;;18.17;4.65;;;;;;;;;;5014901;28;20133;-76
2023/01/14 06:58:03;;;;;;;17.08;4.75;;;;;;;;;;5031799;28;20049;-76
2023/01/14 07:00:30;;;;;;;17.45;4.57;;;;;;;;;;5033282;28;20041;-76
2023/01/14 07:02:56;;;;;;;23.92;4.90;;;;;;;;;;5023032;28;20037;-76
2023/01/14 07:05:22;;;;;;;22.77;5.15;;;;;;;;;;5008347;28;20385;-76
2023/01/14 07:07:48;;;;;;;14.05;5.20;;;;;;;;;;5027964;28;20048;-76
2023/01/14 07:10:15;;;;;;;20.50;5.53;;;;;;;;;;5015456;28;20081;-76
2023/01/14 07:12:46;;;;;;;23.77;5.45;;;;;;;;;;5033112;28;20121;-76
2023/01/14 07:15:12;;;;;;;16.98;4.78;;;;;;;;;;5033422;28;20099;-76
2023/01/14 07:17:38;;;;;;;23.80;5.72;;;;;;;;;;5032389;28;20053;-76
2023/01/14 07:20:05;;;;;;;21.88;6.00;;;;;;;;;;5026892;28;20400;-76
2023/01/14 07:22:31;;;;;;;23.63;5.28;;;;;;;;;;5023899;28;20042;-76
2023/01/14 07:24:59;;;;;;;24.35;5.60;;;;;;;;;;5048607;28;20053;-76
2023/01/14 07:27:25;;;;;;;18.42;5.72;;;;;;;;;;5033215;28;20178;-77
2023/01/14 07:29:52;;;;;;;24.15;7.10;;;;;;;;;;5045009;28;20105;-77
2023/01/14 07:32:18;;;;;;;23.17;7.30;;;;;;;;;;5024420;28;20050;-77
2023/01/14 07:34:44;;;;;;;21.60;7.10;;;;;;;;;;5028865;28;20045;-76
2023/01/14 07:37:10;;;;;;;23.15;6.72;;;;;;;;;;5001394;28;20380;-76
2023/01/14 07:39:36;;;;;;;26.48;6.80;;;;;;;;;;5012978;28;20038;-77
2023/01/14 07:42:02;;;;;;;27.35;7.10;;;;;;;;;;5012068;28;20136;-77
2023/01/14 07:44:28;;;;;;;26.45;7.45;;;;;;;;;;5027068;28;20042;-77
2023/01/14 07:46:55;;;;;;;22.42;7.60;;;;;;;;;;5032637;28;20053;-77
2023/01/14 07:49:21;;;;;;;27.75;7.32;;;;;;;;;;5020560;28;20081;-77
2023/01/14 07:51:48;;;;;;;22.65;7.93;;;;;;;;;;5013460;28;20115;-76
2023/01/14 07:54:14;;;;;;;25.23;7.65;;;;;;;;;;5016726;28;20049;-76
2023/01/14 07:56:40;;;;;;;22.77;7.95;;;;;;;;;;5034545;28;20038;-76
2023/01/14 07:59:06;;;;;;;24.95;7.63;;;;;;;;;;5022338;28;20045;-76
2023/01/14 08:01:32;;;;;;;27.13;8.63;;;;;;;;;;5015060;28;20054;-76
2023/01/14 08:03:58;;;;;;;28.17;7.95;;;;;;;;;;5017054;28;20037;-76
2023/01/14 08:06:25;;;;;;;27.95;7.88;;;;;;;;;;5021281;28;20045;-75
2023/01/14 08:08:51;;;;;;;25.27;7.05;;;;;;;;;;5036522;28;20079;-75
2023/01/14 08:11:17;;;;;;;20.77;7.32;;;;;;;;;;5037682;28;20047;-75
2023/01/14 08:13:43;;;;;;;28.60;7.47;;;;;;;;;;5024851;28;20099;-75
2023/01/14 08:16:10;;;;;;;26.50;7.50;;;;;;;;;;5033740;28;20065;-75
2023/01/14 08:18:36;;;;;;;25.23;7.45;;;;;;;;;;5036318;28;20060;-75
2023/01/14 08:21:04;;;;;;;37.08;7.15;;;;;;;;;;5031710;28;20068;-75
2023/01/14 08:23:30;;;;;;;21.80;6.75;;;;;;;;;;5016904;28;20070;-75
2023/01/14 08:26:04;;;;;;;23.48;6.18;;;;;;;;;;5016397;28;20073;-75
2023/01/14 08:28:30;;;;;;;19.52;6.57;;;;;;;;;;5034880;28;20042;-75
2023/01/14 08:31:06;;;;;;;25.17;6.80;;;;;;;;;;5035039;28;20042;-75
2023/01/14 08:33:32;;;;;;;28.85;6.43;;;;;;;;;;5035941;28;20046;-75
2023/01/14 08:36:05;;;;;;;21.63;5.82;;;;;;;;;;5019515;28;20045;-75
2023/01/14 08:38:31;;;;;;;23.52;6.43;;;;;;;;;;5016006;28;20141;-75
2023/01/14 08:40:59;;;;;;;21.85;5.05;;;;;;;;;;5015836;28;20045;-75
2023/01/14 08:43:25;;;;;;;24.10;6.25;;;;;;;;;;5017989;28;20052;-75
2023/01/14 08:45:51;;;;;;;20.40;5.43;;;;;;;;;;5032992;28;20132;-77
2023/01/14 08:48:17;;;;;;;22.38;5.82;;;;;;;;;;5042373;28;20374;-75
2023/01/14 08:50:43;;;;;;;23.63;5.32;;;;;;;;;;5014545;28;20072;-75
2023/01/14 08:53:09;;;;;;;18.77;4.88;;;;;;;;;;5018431;28;20533;-75
2023/01/14 08:55:35;;;;;;;27.85;5.28;;;;;;;;;;5033587;28;20133;-75
2023/01/14 08:58:01;;;;;;;18.95;5.18;;;;;;;;;;5016856;28;20037;-75
2023/01/14 09:00:27;;;;;;;21.77;5.43;;;;;;;;;;5015482;28;20085;-75
2023/01/14 09:02:53;;;;;;;20.42;4.50;;;;;;;;;;5018073;28;20050;-76
2023/01/14 09:05:19;;;;;;;19.02;4.47;;;;;;;;;;5031732;28;20038;-76
2023/01/14 09:18:44;;;;;;;19.27;5.07;;;;;;;;;;5028854;28;20108;-76
2023/01/14 09:21:10;;;;;;;19.23;4.95;;;;;;;;;;5015579;28;20037;-76
2023/01/14 09:23:36;;;;;;;18.27;4.72;;;;;;;;;;5034631;28;20045;-76
2023/01/14 09:26:02;;;;;;;21.38;4.88;;;;;;;;;;5029590;28;20087;-75
2023/01/14 09:28:28;;;;;;;22.90;5.25;;;;;;;;;;5020134;28;20477;-76
2023/01/14 09:30:54;;;;;;;18.52;4.45;;;;;;;;;;5015546;28;20402;-76
2023/01/14 09:33:20;;;;;;;15.57;4.47;;;;;;;;;;5026196;28;20041;-76
2023/01/14 09:35:46;;;;;;;19.45;5.13;;;;;;;;;;5019762;28;20099;-76
2023/01/14 09:38:12;;;;;;;16.13;5.00;;;;;;;;;;5024411;28;20480;-76
2023/01/14 09:40:39;;;;;;;16.05;5.15;;;;;;;;;;5029191;28;20049;-76
2023/01/14 09:43:05;;;;;;;14.93;4.60;;;;;;;;;;5029092;28;20048;-76
2023/01/14 09:45:33;;;;;;;11.82;4.47;;;;;;;;;;5026395;28;20484;-76
2023/01/14 09:48:18;;;;;;;15.35;5.13;;;;;;;;;;5016098;28;20518;-75
2023/01/14 09:50:56;;;;;;;15.30;5.65;;;;;;;;;;5032130;28;20051;-76
2023/01/14 09:53:36;;;;;;;11.38;4.50;;;;;;;;;;5039671;28;20049;-75
2023/01/14 09:56:07;;;;;;;12.27;3.58;;;;;;;;;;5019779;28;20488;-75
2023/01/14 09:58:35;;;;;;;11.70;3.75;;;;;;;;;;5004903;28;20045;-76
2023/01/14 10:01:19;;;;;;;12.07;3.50;;;;;;;;;;5023394;28;20181;-76
2023/01/14 10:03:52;;;;;;;10.68;3.88;;;;;;;;;;5040041;28;20054;-75
2023/01/14 10:06:18;;;;;;;11.90;3.67;;;;;;;;;;5029913;28;20443;-76
2023/01/14 10:08:54;;;;;;;10.00;4.20;;;;;;;;;;5018270;28;20508;-75
2023/01/14 10:11:20;;;;;;;9.30;3.33;;;;;;;;;;5013504;28;20053;-75
2023/01/14 10:13:53;;;;;;;11.98;3.53;;;;;;;;;;5014750;28;20049;-75
2023/01/14 10:16:19;;;;;;;8.32;3.10;;;;;;;;;;5012481;28;20060;-76
2023/01/14 10:19:04;;;;;;;10.07;3.38;;;;;;;;;;5014079;28;20053;-75
2023/01/14 10:21:34;;;;;;;7.40;3.03;;;;;;;;;;5017685;28;20093;-76
2023/01/14 10:24:00;;;;;;;7.00;2.80;;;;;;;;;;5014378;28;20100;-77
2023/01/14 10:26:32;;;;;;;8.80;3.00;;;;;;;;;;5018483;28;20046;-76
2023/01/14 10:29:01;;;;;;;6.57;3.22;;;;;;;;;;5015585;28;20049;-78
2023/01/14 10:31:31;;;;;;;10.35;3.22;;;;;;;;;;5017539;28;20055;-75
2023/01/14 10:34:03;;;;;;;6.80;3.28;;;;;;;;;;5019695;28;20057;-75
2023/01/14 10:36:34;;;;;;;8.02;2.90;;;;;;;;;;5047880;28;20045;-75
2023/01/14 10:39:02;;;;;;;7.43;3.17;;;;;;;;;;5023069;28;20522;-75
2023/01/14 10:42:04;;;;;;;5.72;3.30;;;;;;;;;;5043853;28;20041;-75
2023/01/14 10:44:23;;;;;;;6.78;2.92;;;;;;;;;;5036470;28;20059;-75
2023/01/14 10:46:57;;;;;;;7.43;2.90;;;;;;;;;;5040293;28;20437;-75
2023/01/14 10:49:42;;;;;;;7.13;3.10;;;;;;;;;;5053101;28;20037;-75
2023/01/14 10:52:33;;;;;;;7.30;2.90;;;;;;;;;;5024511;28;20045;-76
2023/01/14 10:55:02;;;;;;;7.22;2.85;;;;;;;;;;5018185;28;20531;-77
2023/01/14 10:57:32;;;;;;;5.13;3.00;;;;;;;;;;5028006;28;20038;-76
2023/01/14 11:00:00;;;;;;;7.35;3.05;;;;;;;;;;5015079;28;20081;-76
2023/01/14 11:05:44;;;;;;;5.25;2.30;;;;;;;;;;4993436;28;20062;-76
2023/01/14 11:08:29;;;;;;;5.70;2.90;;;;;;;;;;5013752;28;20078;-76
2023/01/14 11:10:59;;;;;;;7.78;2.92;;;;;;;;;;5013414;28;20054;-76
2023/01/14 11:13:41;;;;;;;6.68;2.90;;;;;;;;;;5013887;28;20042;-76
2023/01/14 11:16:36;;;;;;;5.20;2.83;;;;;;;;;;5003680;28;20104;-76
2023/01/14 11:19:04;;;;;;;6.72;2.70;;;;;;;;;;5013435;28;20511;-76
2023/01/14 11:21:43;;;;;;;8.00;2.90;;;;;;;;;;5014072;28;20056;-76
2023/01/14 11:24:12;;;;;;;4.32;2.70;;;;;;;;;;5011750;28;20455;-75
2023/01/14 11:26:40;;;;;;;4.93;3.25;;;;;;;;;;5026446;28;20041;-76
2023/01/14 11:29:12;;;;;;;5.88;3.63;;;;;;;;;;5006994;28;20084;-76
2023/01/14 11:31:38;;;;;;;6.28;3.33;;;;;;;;;;5026739;28;20128;-76
2023/01/14 11:34:04;;;;;;;5.18;3.00;;;;;;;;;;5043598;28;20403;-76
2023/01/14 11:36:33;;;;;;;4.05;3.03;;;;;;;;;;5009806;28;20078;-75
2023/01/14 11:39:00;;;;;;;4.35;2.63;;;;;;;;;;5017069;28;20057;-75
2023/01/14 11:41:29;;;;;;;5.68;3.30;;;;;;;;;;5040932;28;20064;-76
2023/01/14 11:44:04;;;;;;;4.63;2.90;;;;;;;;;;5045259;28;20064;-75
2023/01/14 11:46:33;;;;;;;7.40;3.43;;;;;;;;;;5025566;28;20128;-75
2023/01/14 11:49:19;;;;;;;6.35;3.08;;;;;;;;;;5036729;28;20046;-76
2023/01/14 11:51:58;;;;;;;4.90;2.70;;;;;;;;;;5066263;28;20064;-76
2023/01/14 11:54:34;;;;;;;5.70;2.72;;;;;;;;;;5038674;28;20492;-76
2023/01/14 11:57:00;;;;;;;5.97;3.15;;;;;;;;;;5052687;28;20053;-75
2023/01/14 11:59:31;;;;;;;5.53;3.22;;;;;;;;;;5038820;28;20141;-76
2023/01/14 12:02:16;;;;;;;5.43;2.60;;;;;;;;;;5023038;28;20435;-76
2023/01/14 12:04:45;;;;;;;4.85;2.58;;;;;;;;;;5017146;28;20037;-76
2023/01/14 12:07:13;;;;;;;4.55;2.75;;;;;;;;;;5049464;28;20041;-76
2023/01/14 12:09:47;;;;;;;3.80;2.65;;;;;;;;;;5037175;28;20511;-76
2023/01/14 12:12:13;;;;;;;3.60;2.70;;;;;;;;;;5036574;28;20053;-75
2023/01/14 12:17:36;;;;;;;5.03;2.60;;;;;;;;;;5031065;28;20061;-75
2023/01/14 12:20:06;;;;;;;3.88;2.80;;;;;;;;;;5016976;28;20542;-76
2023/01/14 12:22:36;;;;;;;5.18;2.70;;;;;;;;;;5039889;28;20050;-76
2023/01/14 12:25:12;;;;;;;4.32;2.90;;;;;;;;;;5039387;28;20107;-75
2023/01/14 12:27:42;;;;;;;4.40;3.42;;;;;;;;;;5036562;28;20042;-75
2023/01/14 12:30:13;;;;;;;5.88;4.20;;;;;;;;;;5021275;28;20578;-75
2023/01/14 12:32:42;;;;;;;6.10;3.42;;;;;;;;;;5026534;28;20040;-76
2023/01/14 12:35:13;;;;;;;4.43;2.72;;;;;;;;;;5035212;28;20037;-76
2023/01/14 12:37:51;;;;;;;4.65;2.53;;;;;;;;;;5027591;28;20038;-76
2023/01/14 12:46:07;;;;;;;2.50;2.25;;;;;;;;;;5044847;28;20050;-76
2023/01/14 12:48:34;;;;;;;3.83;2.70;;;;;;;;;;5014534;28;20100;-76
2023/01/14 12:51:19;;;;;;;5.55;2.90;;;;;;;;;;5020959;28;20080;-75
2023/01/14 12:53:48;;;;;;;3.63;2.60;;;;;;;;;;5034469;28;20499;-75
2023/01/14 12:56:21;;;;;;;5.28;3.03;;;;;;;;;;5022813;28;20492;-75
2023/01/14 12:59:01;;;;;;;3.72;2.58;;;;;;;;;;5015621;28;20118;-77
2023/01/14 13:01:30;;;;;;;4.13;2.72;;;;;;;;;;5042054;28;20045;-79
2023/01/14 13:04:01;;;;;;;3.63;2.55;;;;;;;;;;5040928;28;20053;-76
2023/01/14 13:06:38;;;;;;;5.28;2.97;;;;;;;;;;5032815;28;20471;-76
2023/01/14 13:09:06;;;;;;;4.68;3.00;;;;;;;;;;5033772;28;20050;-75
2023/01/14 13:11:45;;;;;;;4.85;3.10;;;;;;;;;;5040287;28;20105;-76
2023/01/14 13:14:35;;;;;;;4.50;3.15;;;;;;;;;;5034891;28;20049;-76
2023/01/14 13:17:03;;;;;;;3.17;2.70;;;;;;;;;;5033613;28;20080;-76
2023/01/14 13:19:34;;;;;;;4.03;2.50;;;;;;;;;;5020631;28;20045;-76
2023/01/14 13:22:06;;;;;;;3.30;2.78;;;;;;;;;;5034285;28;20042;-77
2023/01/14 13:24:46;;;;;;;3.83;2.95;;;;;;;;;;5015417;28;20046;-76
2023/01/14 13:27:32;;;;;;;3.33;2.55;;;;;;;;;;5019746;28;20042;-77
2023/01/14 13:30:17;;;;;;;3.75;2.50;;;;;;;;;;5023051;28;20495;-76
2023/01/14 13:32:54;;;;;;;4.43;2.20;;;;;;;;;;5032200;28;20115;-76
2023/01/14 13:35:21;;;;;;;2.80;2.25;;;;;;;;;;5013866;28;20053;-75
2023/01/14 13:37:48;;;;;;;2.95;2.40;;;;;;;;;;5050635;28;20051;-76
2023/01/14 13:40:21;;;;;;;2.40;2.20;;;;;;;;;;5054386;28;20045;-77
2023/01/14 13:43:06;;;;;;;4.05;3.30;;;;;;;;;;5054053;28;20048;-76
2023/01/14 13:45:35;;;;;;;4.90;2.70;;;;;;;;;;5035495;28;20041;-76
2023/01/14 13:48:15;;;;;;;5.15;3.63;;;;;;;;;;5034034;28;20595;-76
2023/01/14 13:50:42;;;;;;;4.68;3.65;;;;;;;;;;5034235;28;20080;-76
2023/01/14 13:53:08;;;;;;;6.22;4.15;;;;;;;;;;5026669;28;20038;-76
2023/01/14 13:55:35;;;;;;;4.88;3.42;;;;;;;;;;5014859;28;20104;-76
2023/01/14 13:58:03;;;;;;;6.15;4.45;;;;;;;;;;5014994;28;20050;-76
2023/01/14 14:00:37;;;;;;;3.78;3.17;;;;;;;;;;5030529;28;20480;-77
2023/01/14 14:03:25;;;;;;;5.07;3.50;;;;;;;;;;5031696;28;20099;-77
2023/01/14 14:06:11;;;;;;;7.05;5.97;;;;;;;;;;5029487;28;20451;-77
2023/01/14 14:08:38;;;;;;;6.55;5.80;;;;;;;;;;5014387;28;20125;-76
2023/01/14 14:11:06;;;;;;;5.28;3.35;;;;;;;;;;5012972;28;20046;-76
2023/01/14 14:16:46;;;;;;;3.60;3.28;;;;;;;;;;5014414;28;20050;-76
2023/01/14 14:19:18;;;;;;;4.00;3.03;;;;;;;;;;5026009;28;20303;-76
2023/01/14 14:21:47;;;;;;;3.97;3.20;;;;;;;;;;5026490;28;20042;-76
2023/01/14 14:24:17;;;;;;;5.57;3.20;;;;;;;;;;5025484;28;20100;-76
2023/01/14 14:26:44;;;;;;;4.28;3.70;;;;;;;;;;5019232;28;20167;-76
2023/01/14 14:29:12;;;;;;;5.63;3.25;;;;;;;;;;5021652;28;20060;-78
2023/01/14 14:32:07;;;;;;;5.20;4.65;;;;;;;;;;5014612;28;20038;-77
2023/01/14 14:35:04;;;;;;;6.85;4.95;;;;;;;;;;5037788;28;20049;-76
2023/01/14 14:37:55;;;;;;;5.63;4.05;;;;;;;;;;5013132;28;20096;-75
2023/01/14 14:40:33;;;;;;;6.65;5.38;;;;;;;;;;5013751;28;20053;-76
2023/01/14 14:43:05;;;;;;;5.43;4.40;;;;;;;;;;5014150;28;20472;-76
2023/01/14 14:45:36;;;;;;;6.65;5.53;;;;;;;;;;5025768;28;20053;-76
2023/01/14 14:48:34;;;;;;;5.53;3.92;;;;;;;;;;5013772;28;20460;-75
2023/01/14 14:51:22;;;;;;;7.80;5.30;;;;;;;;;;4996912;28;20459;-75
2023/01/14 14:53:51;;;;;;;5.00;4.18;;;;;;;;;;5015803;28;20046;-75
2023/01/14 14:56:18;;;;;;;5.10;4.25;;;;;;;;;;5029192;28;20106;-77
2023/01/14 14:58:51;;;;;;;11.05;8.15;;;;;;;;;;5023663;28;20042;-74
2023/01/14 15:01:22;;;;;;;5.13;4.28;;;;;;;;;;5013775;28;20562;-75
2023/01/14 15:03:51;;;;;;;5.03;4.40;;;;;;;;;;5050708;28;20454;-75
2023/01/14 15:06:18;;;;;;;9.20;6.90;;;;;;;;;;5030495;28;20124;-75
2023/01/14 15:09:00;;;;;;;5.88;4.50;;;;;;;;;;5026666;28;20049;-75
2023/01/14 15:11:32;;;;;;;4.15;3.60;;;;;;;;;;5029818;28;20477;-75
2023/01/14 15:13:58;;;;;;;6.22;4.75;;;;;;;;;;5029873;28;20503;-75
2023/01/14 15:16:29;;;;;;;6.82;5.40;;;;;;;;;;5021810;28;20059;-75
2023/01/14 15:19:02;;;;;;;6.90;4.93;;;;;;;;;;5032041;28;20576;-75
2023/01/14 15:21:42;;;;;;;5.68;4.53;;;;;;;;;;5022213;28;20086;-75
2023/01/14 15:24:17;;;;;;;6.28;4.28;;;;;;;;;;5020820;28;20412;-75
2023/01/14 15:26:44;;;;;;;5.80;3.70;;;;;;;;;;5023543;28;20046;-75
2023/01/14 15:29:18;;;;;;;7.32;4.53;;;;;;;;;;5023140;28;20480;-75